Date,TemperatureHighF,TemperatureAvgF,TemperatureLowF,DewpointHighF,DewpointAvgF,DewpointLowF,HumidityHigh,HumidityAvg,HumidityLow,PressureMaxIn,PressureMinIn,WindSpeedMaxMPH,WindSpeedAvgMPH,GustSpeedMaxMPH,PrecipitationSumIn
2012-10-1,90,81,75,77,74,72,96,81,58,29.82,29.73,16,3,16,0.00
2012-10-2,85,79,76,78,75,72,96,87,71,30.03,29.80,15,2,15,0.00
2012-10-3,82,76,74,78,74,72,97,94,80,30.16,30.02,7,1,7,0.00
2012-10-4,91,77,71,79,73,69,98,90,57,30.18,30.06,28,1,28,0.00
2012-10-5,88,77,71,79,74,70,99,90,69,30.14,29.95,14,1,14,0.00
2012-10-6,85,77,72,79,74,69,99,91,75,30.00,29.87,14,0,14,0.00
2012-10-7,88,77,71,77,72,69,99,87,63,30.00,29.91,11,1,11,0.00
2012-10-8,84,77,71,77,73,70,98,89,72,30.03,29.94,8,0,8,0.00
2012-10-9,85,76,71,76,73,71,99,90,72,30.06,29.97,7,1,7,0.00
2012-10-10,82,75,69,74,70,66,96,86,63,30.12,30.03,8,1,8,0.00
2012-10-11,84,74,66,71,67,65,97,80,55,30.18,30.09,13,2,13,0.00
2012-10-12,85,78,66,70,65,61,94,65,49,30.20,30.10,13,2,13,0.00
2012-10-13,86,74,67,70,66,63,93,77,54,30.20,30.08,18,2,18,0.00
2012-10-14,88,78,68,72,69,66,95,77,52,30.13,29.99,12,2,12,0.00
2012-10-15,87,77,71,77,72,70,96,84,62,30.00,29.82,10,1,10,0.00
2012-10-16,84,74,68,71,68,63,99,81,60,29.89,29.80,10,1,10,0.00
2012-10-17,79,72,67,72,68,64,95,87,72,29.92,29.81,5,0,5,0.00
2012-10-18,88,76,68,75,70,67,98,84,56,29.91,29.80,9,1,9,0.00
2012-10-19,87,76,67,75,70,66,99,84,55,29.89,29.81,11,1,11,0.00
2012-10-20,82,73,62,73,63,53,96,72,44,29.99,29.86,11,1,11,0.00
2012-10-21,81,68,58,61,56,52,91,68,39,30.08,29.97,13,1,13,0.00
2012-10-22,85,72,63,68,63,59,90,73,47,30.10,29.99,15,2,15,0.00
2012-10-23,84,73,64,70,65,61,93,76,55,30.08,29.96,15,2,15,0.00
2012-10-24,87,76,67,73,68,64,93,78,53,30.03,29.90,16,2,16,0.00
2012-10-25,84,75,71,74,70,68,93,85,66,29.95,29.80,18,2,18,0.00
2012-10-26,85,76,72,72,68,63,93,78,48,29.83,29.65,18,1,18,0.00
2012-10-27,75,72,68,66,64,60,84,76,69,29.73,29.61,20,4,20,0.00
2012-10-28,73,69,62,66,61,54,89,77,61,29.83,29.71,19,3,19,0.00
2012-10-29,66,60,54,56,49,45,80,67,49,29.91,29.79,20,3,20,0.00
2012-10-30,67,58,46,51,46,41,89,66,40,29.97,29.85,24,2,24,0.00
2012-10-31,71,62,53,56,51,47,92,71,48,30.08,29.97,12,1,12,0.00